Time;durP1;ratioP1;P1;durP2;ratioP2;P2;SDS_P1;SDS_P2;PMS_P1;PMS_P2;Temp;Humidity;BMP_temperature;BMP_pressure;BME280_temperature;BME280_humidity;BME280_pressure;Samples;Min_cycle;Max_cycle;Signal;HPM_P1;HPM_P2
2022/08/23 00:01:31;;;;;;;6.00;4.70;;;;;;;;;;5054109;28;20036;-75
2022/08/23 00:03:59;;;;;;;8.00;5.07;;;;;;;;;;5054114;28;20028;-76
2022/08/23 00:06:25;;;;;;;11.23;5.03;;;;;;;;;;5053722;28;20054;-74
2022/08/23 00:08:52;;;;;;;9.48;5.10;;;;;;;;;;5053957;28;20040;-75
2022/08/23 00:11:38;;;;;;;9.25;5.50;;;;;;;;;;5053141;28;20021;-74
2022/08/23 00:14:17;;;;;;;10.98;5.03;;;;;;;;;;5054052;28;20024;-73
2022/08/23 00:16:43;;;;;;;8.52;5.13;;;;;;;;;;5053688;28;20033;-74
2022/08/23 00:19:11;;;;;;;8.48;5.13;;;;;;;;;;5053635;28;20025;-75
2022/08/23 00:21:37;;;;;;;8.68;4.90;;;;;;;;;;5052400;28;20021;-75
2022/08/23 00:24:06;;;;;;;11.90;5.15;;;;;;;;;;5053515;28;20033;-75
2022/08/23 00:27:08;;;;;;;11.52;5.25;;;;;;;;;;5053807;28;20028;-75
2022/08/23 00:29:45;;;;;;;9.02;5.47;;;;;;;;;;5053776;28;20486;-77
2022/08/23 00:32:15;;;;;;;10.13;5.75;;;;;;;;;;5053531;28;20433;-75
2022/08/23 00:34:41;;;;;;;11.95;5.82;;;;;;;;;;5052552;28;20386;-75
2022/08/23 00:37:08;;;;;;;10.25;6.05;;;;;;;;;;5053655;28;20029;-75
2022/08/23 00:39:34;;;;;;;12.15;6.15;;;;;;;;;;5053463;28;20021;-76
2022/08/23 00:47:43;;;;;;;29.05;6.75;;;;;;;;;;5053850;28;20044;-76
2022/08/23 00:50:23;;;;;;;15.68;5.95;;;;;;;;;;5053427;28;20020;-76
2022/08/23 00:53:17;;;;;;;12.98;6.05;;;;;;;;;;5053467;28;20096;-75
2022/08/23 00:55:47;;;;;;;11.77;6.10;;;;;;;;;;5052860;28;20480;-75
2022/08/23 00:58:14;;;;;;;11.38;6.00;;;;;;;;;;5052361;28;20425;-75
2022/08/23 01:00:40;;;;;;;10.38;6.15;;;;;;;;;;5053274;28;20025;-75
2022/08/23 01:03:08;;;;;;;10.20;6.10;;;;;;;;;;5053062;28;20032;-76
2022/08/23 01:05:53;;;;;;;14.02;6.57;;;;;;;;;;5052741;28;20028;-76
2022/08/23 01:08:22;;;;;;;10.93;6.00;;;;;;;;;;5051711;28;20036;-75
2022/08/23 01:10:55;;;;;;;8.93;5.85;;;;;;;;;;5052964;28;20021;-75
2022/08/23 01:13:25;;;;;;;9.70;6.10;;;;;;;;;;5053241;28;20025;-75
2022/08/23 01:15:55;;;;;;;8.02;5.22;;;;;;;;;;5053160;28;20096;-75
2022/08/23 01:18:23;;;;;;;9.48;5.43;;;;;;;;;;5051585;28;20021;-75
2022/08/23 01:21:09;;;;;;;11.80;6.20;;;;;;;;;;5052019;28;20029;-75
2022/08/23 01:23:50;;;;;;;12.25;5.40;;;;;;;;;;5057213;28;20111;-75
2022/08/23 01:26:17;;;;;;;10.25;5.38;;;;;;;;;;5057130;28;20021;-76
2022/08/23 01:28:43;;;;;;;7.95;4.82;;;;;;;;;;5056876;28;20090;-75
2022/08/23 01:31:10;;;;;;;9.40;5.35;;;;;;;;;;5056956;28;20029;-74
2022/08/23 01:33:37;;;;;;;11.05;5.63;;;;;;;;;;5056787;28;20108;-74
2022/08/23 01:36:03;;;;;;;9.63;5.75;;;;;;;;;;5056725;28;20025;-75
2022/08/23 01:38:28;;;;;;;7.75;5.45;;;;;;;;;;5056736;28;20044;-74
2022/08/23 01:40:54;;;;;;;13.25;5.53;;;;;;;;;;5056655;28;20482;-75
2022/08/23 01:43:21;;;;;;;8.75;5.28;;;;;;;;;;5056923;28;20056;-76
2022/08/23 01:45:48;;;;;;;7.13;5.63;;;;;;;;;;5055225;28;20025;-75
2022/08/23 01:48:14;;;;;;;12.38;5.68;;;;;;;;;;5057087;28;20068;-75
2022/08/23 01:50:40;;;;;;;8.77;5.50;;;;;;;;;;5056816;28;20017;-75
2022/08/23 01:53:05;;;;;;;15.82;6.20;;;;;;;;;;5056475;28;20021;-75
2022/08/23 01:55:31;;;;;;;9.15;5.20;;;;;;;;;;5056329;28;20470;-75
2022/08/23 01:57:58;;;;;;;11.07;5.72;;;;;;;;;;5056352;28;20060;-75
2022/08/23 02:00:29;;;;;;;8.52;5.82;;;;;;;;;;5054982;28;20040;-75
2022/08/23 02:02:55;;;;;;;9.05;5.85;;;;;;;;;;5056336;28;20544;-76
2022/08/23 02:05:20;;;;;;;9.85;5.80;;;;;;;;;;5055849;28;20037;-75
2022/08/23 02:07:46;;;;;;;10.47;5.20;;;;;;;;;;5054893;28;20074;-76
2022/08/23 02:10:12;;;;;;;12.00;5.63;;;;;;;;;;5054852;28;20250;-75
2022/08/23 02:12:37;;;;;;;10.77;5.43;;;;;;;;;;5056077;28;20363;-75
2022/08/23 02:15:04;;;;;;;9.50;5.43;;;;;;;;;;5056229;28;20028;-74
2022/08/23 02:17:29;;;;;;;10.02;5.47;;;;;;;;;;5055908;28;20673;-75
2022/08/23 02:19:54;;;;;;;9.80;5.63;;;;;;;;;;5055966;28;20104;-76
2022/08/23 02:22:19;;;;;;;12.10;5.83;;;;;;;;;;5054703;28;20311;-75
2022/08/23 02:24:46;;;;;;;9.60;5.70;;;;;;;;;;5055819;28;20311;-75
2022/08/23 02:27:14;;;;;;;9.55;6.25;;;;;;;;;;5056050;28;20021;-74
2022/08/23 02:29:42;;;;;;;13.32;5.93;;;;;;;;;;5055713;28;20029;-75
2022/08/23 02:32:08;;;;;;;12.45;6.15;;;;;;;;;;5055753;28;20024;-75
2022/08/23 02:34:33;;;;;;;10.18;5.82;;;;;;;;;;5054879;28;20512;-75
2022/08/23 02:36:59;;;;;;;7.82;5.25;;;;;;;;;;5055631;28;20056;-75
2022/08/23 02:39:26;;;;;;;10.30;5.57;;;;;;;;;;5055559;28;20402;-75
2022/08/23 02:41:52;;;;;;;10.10;6.03;;;;;;;;;;5054222;28;20029;-75
2022/08/23 02:44:18;;;;;;;11.20;6.00;;;;;;;;;;5055427;28;20075;-75
2022/08/23 02:46:44;;;;;;;10.77;5.85;;;;;;;;;;5055368;28;20044;-75
2022/08/23 02:49:10;;;;;;;9.43;5.75;;;;;;;;;;5054097;28;20032;-75
2022/08/23 02:51:37;;;;;;;10.75;6.10;;;;;;;;;;5055283;28;20083;-75
2022/08/23 02:54:03;;;;;;;11.45;6.20;;;;;;;;;;5055252;28;20036;-75
2022/08/23 02:56:28;;;;;;;10.93;5.97;;;;;;;;;;5055316;28;20545;-75
2022/08/23 02:58:53;;;;;;;9.55;5.72;;;;;;;;;;5055153;28;20475;-75
2022/08/23 03:01:24;;;;;;;7.13;5.33;;;;;;;;;;5055210;28;20021;-76
2022/08/23 03:03:49;;;;;;;10.43;5.63;;;;;;;;;;5055371;28;20300;-75
2022/08/23 03:06:15;;;;;;;7.82;5.28;;;;;;;;;;5053691;28;20037;-75
2022/08/23 03:08:41;;;;;;;8.52;5.53;;;;;;;;;;5055319;28;20060;-74
2022/08/23 03:11:15;;;;;;;6.88;5.60;;;;;;;;;;5054984;28;20052;-75
2022/08/23 03:13:41;;;;;;;10.73;5.85;;;;;;;;;;5053649;28;20025;-75
2022/08/23 03:16:07;;;;;;;11.45;5.55;;;;;;;;;;5055016;28;20029;-75
2022/08/23 03:18:34;;;;;;;10.73;5.63;;;;;;;;;;5055078;28;20032;-74
2022/08/23 03:20:59;;;;;;;10.88;5.57;;;;;;;;;;5053472;28;20486;-75
2022/08/23 03:23:25;;;;;;;8.68;5.25;;;;;;;;;;5054728;28;20171;-75
2022/08/23 03:25:51;;;;;;;11.60;5.32;;;;;;;;;;5054659;28;20367;-75
2022/08/23 03:28:16;;;;;;;7.30;5.10;;;;;;;;;;5054972;28;20083;-74
2022/08/23 03:30:42;;;;;;;16.90;5.68;;;;;;;;;;5054651;28;20029;-74
2022/08/23 03:33:07;;;;;;;7.03;4.75;;;;;;;;;;5054618;28;20509;-75
2022/08/23 03:35:32;;;;;;;8.18;5.18;;;;;;;;;;5054429;28;20020;-75
2022/08/23 03:37:57;;;;;;;8.57;5.20;;;;;;;;;;5053199;28;20024;-75
2022/08/23 03:40:23;;;;;;;6.67;5.27;;;;;;;;;;5053116;28;20482;-75
2022/08/23 03:42:50;;;;;;;8.05;5.13;;;;;;;;;;5054515;28;20628;-75
2022/08/23 03:45:16;;;;;;;9.57;5.35;;;;;;;;;;5051862;28;20063;-75
2022/08/23 03:47:42;;;;;;;8.02;5.85;;;;;;;;;;5053037;28;20376;-75
2022/08/23 03:50:08;;;;;;;7.50;5.05;;;;;;;;;;5054239;28;20025;-75
2022/08/23 03:52:33;;;;;;;9.38;5.35;;;;;;;;;;5053739;28;20523;-75
2022/08/23 03:54:59;;;;;;;8.33;5.40;;;;;;;;;;5054359;28;20032;-75
2022/08/23 03:57:24;;;;;;;6.50;5.10;;;;;;;;;;5052832;28;20273;-75
2022/08/23 03:59:49;;;;;;;7.18;5.18;;;;;;;;;;5052819;28;20025;-75
2022/08/23 04:02:15;;;;;;;8.53;5.07;;;;;;;;;;5054050;28;20032;-75
2022/08/23 04:04:41;;;;;;;7.38;4.90;;;;;;;;;;5053805;28;20266;-75
2022/08/23 04:07:06;;;;;;;7.13;5.00;;;;;;;;;;5052608;28;20385;-75
2022/08/23 04:09:31;;;;;;;8.77;4.97;;;;;;;;;;5053931;28;20040;-75
2022/08/23 04:11:56;;;;;;;6.97;5.13;;;;;;;;;;5053822;28;20037;-75
2022/08/23 04:14:23;;;;;;;9.00;4.63;;;;;;;;;;5053865;28;20252;-75
2022/08/23 04:16:48;;;;;;;8.30;5.25;;;;;;;;;;5052719;28;20674;-74
2022/08/23 04:19:14;;;;;;;12.90;4.90;;;;;;;;;;5053762;28;20025;-74
2022/08/23 04:21:43;;;;;;;7.28;4.65;;;;;;;;;;5053703;28;20052;-75
2022/08/23 04:24:08;;;;;;;9.02;4.80;;;;;;;;;;5053888;28;20505;-75
2022/08/23 04:26:33;;;;;;;11.10;5.10;;;;;;;;;;5053500;28;20025;-75
2022/08/23 04:28:59;;;;;;;8.23;4.97;;;;;;;;;;5053524;28;20308;-75
2022/08/23 04:31:25;;;;;;;12.38;5.00;;;;;;;;;;5052212;28;20751;-74
2022/08/23 04:33:52;;;;;;;9.65;5.18;;;;;;;;;;5053448;28;20036;-74
2022/08/23 04:36:17;;;;;;;11.13;5.05;;;;;;;;;;5053464;28;20509;-75
2022/08/23 04:38:42;;;;;;;8.57;4.47;;;;;;;;;;5053334;28;20033;-75
2022/08/23 04:43:51;;;;;;;8.18;4.60;;;;;;;;;;5053308;28;20063;-75
2022/08/23 04:46:16;;;;;;;7.50;4.90;;;;;;;;;;5052100;28;20510;-75
2022/08/23 04:48:43;;;;;;;5.70;4.78;;;;;;;;;;5053453;28;20514;-75
2022/08/23 04:51:08;;;;;;;8.00;4.38;;;;;;;;;;5053238;28;20032;-75
2022/08/23 04:53:34;;;;;;;9.52;4.78;;;;;;;;;;5052470;28;20108;-75
2022/08/23 04:56:03;;;;;;;6.05;4.57;;;;;;;;;;5051514;28;20025;-75
2022/08/23 04:58:30;;;;;;;5.90;4.65;;;;;;;;;;5051786;28;20067;-75
2022/08/23 05:00:58;;;;;;;6.43;4.45;;;;;;;;;;5051777;28;20037;-75
2022/08/23 05:03:24;;;;;;;8.02;4.70;;;;;;;;;;5052951;28;20029;-75
2022/08/23 05:05:52;;;;;;;7.00;4.45;;;;;;;;;;5052631;28;20033;-75
2022/08/23 05:08:18;;;;;;;9.73;4.85;;;;;;;;;;5053108;28;20053;-75
2022/08/23 05:10:44;;;;;;;9.20;4.63;;;;;;;;;;5052903;28;20406;-75
2022/08/23 05:13:09;;;;;;;8.98;4.60;;;;;;;;;;5053205;28;20032;-75
2022/08/23 05:15:34;;;;;;;8.45;4.70;;;;;;;;;;5052868;28;20049;-75
2022/08/23 05:18:00;;;;;;;8.75;4.00;;;;;;;;;;5052825;28;20040;-75
2022/08/23 05:20:25;;;;;;;5.38;4.32;;;;;;;;;;5053119;28;20067;-74
2022/08/23 05:22:51;;;;;;;9.50;4.55;;;;;;;;;;5053021;28;20029;-74
2022/08/23 05:25:16;;;;;;;9.80;4.63;;;;;;;;;;5052667;28;20482;-76
2022/08/23 05:27:42;;;;;;;7.05;4.45;;;;;;;;;;5053043;28;20033;-75
2022/08/23 05:30:07;;;;;;;9.18;4.90;;;;;;;;;;5051507;28;20025;-74
2022/08/23 05:32:33;;;;;;;7.80;5.22;;;;;;;;;;5052848;28;20027;-75
2022/08/23 05:34:58;;;;;;;6.47;4.40;;;;;;;;;;5052763;28;20470;-74
2022/08/23 05:37:23;;;;;;;7.95;4.78;;;;;;;;;;5052669;28;20021;-75
2022/08/23 05:39:48;;;;;;;9.60;4.80;;;;;;;;;;5051430;28;20493;-76
2022/08/23 05:42:15;;;;;;;6.60;4.47;;;;;;;;;;5052885;28;20616;-74
2022/08/23 05:44:41;;;;;;;8.82;4.28;;;;;;;;;;5052649;28;20033;-75
2022/08/23 05:47:09;;;;;;;5.88;4.55;;;;;;;;;;5052415;28;20433;-75
2022/08/23 05:49:35;;;;;;;6.97;4.72;;;;;;;;;;5052787;28;20029;-75
2022/08/23 05:52:03;;;;;;;8.43;5.00;;;;;;;;;;5052853;28;20410;-75
2022/08/23 05:54:28;;;;;;;10.30;5.00;;;;;;;;;;5052407;28;20029;-75
2022/08/23 05:56:53;;;;;;;9.38;4.97;;;;;;;;;;5052477;28;20044;-75
2022/08/23 05:59:19;;;;;;;13.03;5.47;;;;;;;;;;5052783;28;20067;-75
2022/08/23 06:01:44;;;;;;;7.53;5.30;;;;;;;;;;5052418;28;20290;-75
2022/08/23 06:04:11;;;;;;;7.65;5.05;;;;;;;;;;5051943;28;20070;-75
2022/08/23 06:06:37;;;;;;;9.23;5.47;;;;;;;;;;5050968;28;20060;-75
2022/08/23 06:09:04;;;;;;;8.43;4.97;;;;;;;;;;5052607;28;20036;-75
2022/08/23 06:11:30;;;;;;;8.93;5.15;;;;;;;;;;5056261;28;20032;-75
2022/08/23 06:13:57;;;;;;;9.35;5.78;;;;;;;;;;5055896;28;20029;-75
2022/08/23 06:16:26;;;;;;;9.18;5.40;;;;;;;;;;5055889;28;20025;-75
2022/08/23 06:18:53;;;;;;;12.05;5.53;;;;;;;;;;5055996;28;20086;-75
2022/08/23 06:21:18;;;;;;;9.23;5.47;;;;;;;;;;5054605;28;20078;-74
2022/08/23 06:23:46;;;;;;;9.95;5.47;;;;;;;;;;5055909;28;20028;-74
2022/08/23 06:26:17;;;;;;;12.70;6.00;;;;;;;;;;5054478;28;20025;-74
2022/08/23 06:28:45;;;;;;;8.35;5.75;;;;;;;;;;5056128;28;20066;-76
2022/08/23 06:31:10;;;;;;;7.85;5.57;;;;;;;;;;5056183;28;20025;-75
2022/08/23 06:33:37;;;;;;;9.70;6.05;;;;;;;;;;5055623;28;20091;-77
2022/08/23 06:36:05;;;;;;;15.43;5.90;;;;;;;;;;5055840;28;20053;-75
2022/08/23 06:38:30;;;;;;;9.27;5.95;;;;;;;;;;5055546;28;20018;-75
2022/08/23 06:41:05;;;;;;;10.73;5.78;;;;;;;;;;5055502;28;20074;-75
2022/08/23 06:43:31;;;;;;;10.25;6.00;;;;;;;;;;5055465;28;20028;-75
2022/08/23 06:46:15;;;;;;;10.48;5.68;;;;;;;;;;5055399;28;20036;-75
2022/08/23 06:48:42;;;;;;;9.35;5.70;;;;;;;;;;5055366;28;20048;-75
2022/08/23 06:51:13;;;;;;;9.82;5.70;;;;;;;;;;5055547;28;20025;-74
2022/08/23 06:53:38;;;;;;;9.23;5.80;;;;;;;;;;5055137;28;20044;-74
2022/08/23 06:56:05;;;;;;;8.52;5.85;;;;;;;;;;5053914;28;20021;-75
2022/08/23 06:58:30;;;;;;;10.55;6.38;;;;;;;;;;5055477;28;20033;-73
2022/08/23 07:01:06;;;;;;;8.10;5.57;;;;;;;;;;5053848;28;20055;-76
2022/08/23 07:03:32;;;;;;;9.38;5.88;;;;;;;;;;5055332;28;20495;-74
2022/08/23 07:05:58;;;;;;;13.80;5.90;;;;;;;;;;5054952;28;20037;-74
2022/08/23 07:08:23;;;;;;;9.02;6.25;;;;;;;;;;5055547;28;20269;-76
2022/08/23 07:10:49;;;;;;;10.77;5.95;;;;;;;;;;5055097;28;20025;-76
2022/08/23 07:13:15;;;;;;;10.77;5.85;;;;;;;;;;5054764;28;20460;-75
2022/08/23 07:15:40;;;;;;;11.10;6.32;;;;;;;;;;5053517;28;20025;-75
2022/08/23 07:18:06;;;;;;;13.83;5.80;;;;;;;;;;5054814;28;20051;-75
2022/08/23 07:20:31;;;;;;;10.57;5.80;;;;;;;;;;5054573;28;20250;-75
2022/08/23 07:22:57;;;;;;;11.03;6.20;;;;;;;;;;5055287;28;20308;-75
2022/08/23 07:25:23;;;;;;;9.63;6.05;;;;;;;;;;5053514;28;20316;-76
2022/08/23 07:27:48;;;;;;;7.77;5.57;;;;;;;;;;5055126;28;20028;-75
2022/08/23 07:30:13;;;;;;;15.47;5.87;;;;;;;;;;5054578;28;20253;-75
2022/08/23 07:32:39;;;;;;;8.67;6.00;;;;;;;;;;5054466;28;20258;-75
2022/08/23 07:35:05;;;;;;;10.00;6.00;;;;;;;;;;5054365;28;20273;-73
2022/08/23 07:37:30;;;;;;;8.60;6.15;;;;;;;;;;5053129;28;20025;-74
2022/08/23 07:39:56;;;;;;;13.02;5.95;;;;;;;;;;5054602;28;20021;-75
2022/08/23 07:42:21;;;;;;;12.83;6.17;;;;;;;;;;5054814;28;20041;-75
2022/08/23 07:44:46;;;;;;;15.47;6.33;;;;;;;;;;5053096;28;20269;-75
2022/08/23 07:47:11;;;;;;;10.15;6.03;;;;;;;;;;5052843;28;20273;-76
2022/08/23 07:49:37;;;;;;;11.17;6.13;;;;;;;;;;5054117;28;20021;-76
2022/08/23 07:52:02;;;;;;;11.87;6.13;;;;;;;;;;5054182;28;20308;-75
2022/08/23 07:54:27;;;;;;;12.75;6.85;;;;;;;;;;5054224;28;20319;-75
2022/08/23 07:56:53;;;;;;;12.52;7.45;;;;;;;;;;5054288;28;20386;-75
2022/08/23 07:59:18;;;;;;;13.70;7.38;;;;;;;;;;5054288;28;20116;-74
2022/08/23 08:01:43;;;;;;;17.10;7.50;;;;;;;;;;5053986;28;20021;-76
2022/08/23 08:04:09;;;;;;;15.00;7.85;;;;;;;;;;5052262;28;20763;-75
2022/08/23 08:06:39;;;;;;;15.65;7.38;;;;;;;;;;5053710;28;20383;-75
2022/08/23 08:09:05;;;;;;;11.15;6.90;;;;;;;;;;5053897;28;20154;-75
2022/08/23 08:11:32;;;;;;;13.77;6.85;;;;;;;;;;5054575;28;20111;-74
2022/08/23 08:13:57;;;;;;;14.18;6.88;;;;;;;;;;5053955;28;20028;-76
2022/08/23 08:16:28;;;;;;;11.60;7.05;;;;;;;;;;5052582;28;20017;-75
2022/08/23 08:18:56;;;;;;;13.82;7.38;;;;;;;;;;5054294;28;20394;-75
2022/08/23 08:21:21;;;;;;;12.15;6.80;;;;;;;;;;5053528;28;20029;-75
2022/08/23 08:23:46;;;;;;;15.13;7.32;;;;;;;;;;5053434;28;20032;-75
2022/08/23 08:26:12;;;;;;;11.03;6.67;;;;;;;;;;5053562;28;20031;-76
2022/08/23 08:28:39;;;;;;;12.27;7.13;;;;;;;;;;5053764;28;20283;-75
2022/08/23 08:31:05;;;;;;;10.15;6.72;;;;;;;;;;5052824;28;20020;-75
2022/08/23 08:33:31;;;;;;;10.60;7.03;;;;;;;;;;5053312;28;20059;-75
2022/08/23 08:35:57;;;;;;;13.02;7.93;;;;;;;;;;5053270;28;20029;-76
2022/08/23 08:38:23;;;;;;;14.43;8.13;;;;;;;;;;5053373;28;20048;-76
2022/08/23 08:40:58;;;;;;;16.10;8.05;;;;;;;;;;5053236;28;20036;-76
2022/08/23 08:43:45;;;;;;;13.23;7.65;;;;;;;;;;5053497;28;20035;-76
2022/08/23 08:46:23;;;;;;;13.68;8.00;;;;;;;;;;5053263;28;20064;-75
2022/08/23 08:48:56;;;;;;;13.82;7.45;;;;;;;;;;5051862;28;20434;-75
2022/08/23 08:51:46;;;;;;;13.95;8.32;;;;;;;;;;5053403;28;20021;-75
2022/08/23 08:54:17;;;;;;;16.92;8.80;;;;;;;;;;5052888;28;20024;-76
2022/08/23 08:56:47;;;;;;;15.38;8.57;;;;;;;;;;5053263;28;20104;-77
2022/08/23 08:59:20;;;;;;;16.35;8.13;;;;;;;;;;5052984;28;20033;-74
2022/08/23 09:01:46;;;;;;;12.85;8.80;;;;;;;;;;5051463;28;20025;-74
2022/08/23 09:04:11;;;;;;;16.80;9.27;;;;;;;;;;5052593;28;20028;-76
2022/08/23 09:06:51;;;;;;;16.15;9.10;;;;;;;;;;5053161;28;20020;-75
2022/08/23 09:09:47;;;;;;;18.42;9.45;;;;;;;;;;5051586;28;20508;-75
2022/08/23 09:12:44;;;;;;;15.43;8.65;;;;;;;;;;5053087;28;20487;-76
2022/08/23 09:15:18;;;;;;;17.30;9.05;;;;;;;;;;5053064;28;20104;-75
2022/08/23 09:17:50;;;;;;;17.33;9.85;;;;;;;;;;5053350;28;20386;-76
2022/08/23 09:20:21;;;;;;;13.30;8.60;;;;;;;;;;5053051;28;20025;-76
2022/08/23 09:22:56;;;;;;;13.70;8.48;;;;;;;;;;5052999;28;20021;-75
2022/08/23 09:25:23;;;;;;;12.75;8.73;;;;;;;;;;5052488;28;20029;-76
2022/08/23 09:27:48;;;;;;;15.05;8.38;;;;;;;;;;5052645;28;20105;-76
2022/08/23 09:30:16;;;;;;;15.00;8.33;;;;;;;;;;5052771;28;20025;-76
2022/08/23 09:32:44;;;;;;;11.85;8.27;;;;;;;;;;5052630;28;20258;-76
2022/08/23 09:35:18;;;;;;;11.57;7.47;;;;;;;;;;5052595;28;20021;-75
2022/08/23 09:37:53;;;;;;;11.50;7.65;;;;;;;;;;5052421;28;20029;-76
2022/08/23 09:40:35;;;;;;;10.75;7.25;;;;;;;;;;5052508;28;20552;-76
2022/08/23 09:43:12;;;;;;;11.63;7.68;;;;;;;;;;5054603;28;20067;-75
2022/08/23 09:45:53;;;;;;;10.63;7.07;;;;;;;;;;5056489;28;20033;-75
2022/08/23 09:48:42;;;;;;;9.43;7.05;;;;;;;;;;5056938;28;20051;-76
2022/08/23 09:51:20;;;;;;;9.95;6.72;;;;;;;;;;5056627;28;20028;-76
2022/08/23 09:53:49;;;;;;;12.65;6.97;;;;;;;;;;5056585;28;20025;-77
2022/08/23 09:56:22;;;;;;;9.35;7.07;;;;;;;;;;5056201;28;20100;-76
2022/08/23 09:58:51;;;;;;;13.70;7.20;;;;;;;;;;5055020;28;20029;-77
2022/08/23 10:01:21;;;;;;;9.60;7.47;;;;;;;;;;5056185;28;20017;-76
2022/08/23 10:04:04;;;;;;;12.25;8.20;;;;;;;;;;5054836;28;20097;-76
2022/08/23 10:06:32;;;;;;;11.90;8.45;;;;;;;;;;5056565;28;20476;-75
2022/08/23 10:09:03;;;;;;;12.32;8.75;;;;;;;;;;5056016;28;20025;-76
2022/08/23 10:11:30;;;;;;;12.32;8.82;;;;;;;;;;5056087;28;20028;-76
2022/08/23 10:13:56;;;;;;;11.05;8.30;;;;;;;;;;5056194;28;20029;-76
2022/08/23 10:16:32;;;;;;;9.68;8.40;;;;;;;;;;5054626;28;20016;-74
2022/08/23 10:19:38;;;;;;;12.52;8.75;;;;;;;;;;5056263;28;20064;-75
2022/08/23 10:22:22;;;;;;;9.82;8.48;;;;;;;;;;5056133;28;20117;-75
2022/08/23 10:25:11;;;;;;;10.77;8.88;;;;;;;;;;5055622;28;20036;-74
2022/08/23 10:30:54;;;;;;;13.35;8.82;;;;;;;;;;5055673;28;20039;-74
2022/08/23 10:33:34;;;;;;;10.55;9.00;;;;;;;;;;5055880;28;20021;-74
2022/08/23 10:36:17;;;;;;;11.95;8.55;;;;;;;;;;5055633;28;20427;-75
2022/08/23 10:38:51;;;;;;;8.27;6.87;;;;;;;;;;5056053;28;20055;-75
2022/08/23 10:41:32;;;;;;;12.30;7.03;;;;;;;;;;5056004;28;20104;-75
2022/08/23 10:44:00;;;;;;;9.50;6.47;;;;;;;;;;5055642;28;20029;-75
2022/08/23 10:46:28;;;;;;;8.43;6.65;;;;;;;;;;5053842;28;20025;-75
2022/08/23 10:48:58;;;;;;;8.20;6.47;;;;;;;;;;5055271;28;20102;-75
2022/08/23 10:51:35;;;;;;;7.75;5.95;;;;;;;;;;5054627;28;20071;-74
2022/08/23 10:54:17;;;;;;;8.82;5.57;;;;;;;;;;5054950;28;20040;-75
2022/08/23 10:56:43;;;;;;;7.68;5.43;;;;;;;;;;5055472;28;20020;-73
2022/08/23 10:59:13;;;;;;;6.70;4.70;;;;;;;;;;5055292;28;20036;-75
2022/08/23 11:01:49;;;;;;;6.15;4.93;;;;;;;;;;5054909;28;20051;-76
2022/08/23 11:04:23;;;;;;;5.60;4.05;;;;;;;;;;5054920;28;20025;-75
2022/08/23 11:06:53;;;;;;;6.47;4.40;;;;;;;;;;5055176;28;20032;-76
2022/08/23 11:09:18;;;;;;;8.57;4.72;;;;;;;;;;5055106;28;20078;-75
2022/08/23 11:11:46;;;;;;;10.57;4.60;;;;;;;;;;5054993;28;20029;-75
2022/08/23 11:14:30;;;;;;;7.93;4.30;;;;;;;;;;5054755;28;20028;-75
2022/08/23 11:17:00;;;;;;;;;;;;;;;;;;5055057;28;20386;-75
2022/08/23 11:19:56;;;;;;;8.60;4.28;;;;;;;;;;5054800;28;19909;-74
2022/08/23 11:22:53;;;;;;;8.07;4.00;;;;;;;;;;5054669;28;20027;-74
2022/08/23 11:25:18;;;;;;;7.03;4.45;;;;;;;;;;5054012;28;20449;-75
2022/08/23 11:27:44;;;;;;;5.95;4.10;;;;;;;;;;5054530;28;20029;-74
2022/08/23 11:30:41;;;;;;;8.07;4.53;;;;;;;;;;5054427;28;20017;-75
2022/08/23 11:33:10;;;;;;;5.93;4.03;;;;;;;;;;5053110;28;20367;-75
2022/08/23 11:35:43;;;;;;;5.97;3.97;;;;;;;;;;5054908;28;20021;-75
2022/08/23 11:38:09;;;;;;;6.25;4.05;;;;;;;;;;5053239;28;20039;-75
2022/08/23 11:40:41;;;;;;;8.60;4.60;;;;;;;;;;5054688;28;20055;-76
2022/08/23 11:43:18;;;;;;;7.30;4.50;;;;;;;;;;5052760;28;20036;-75
2022/08/23 11:45:45;;;;;;;7.35;4.53;;;;;;;;;;5054291;28;20033;-75
2022/08/23 11:48:24;;;;;;;5.65;4.53;;;;;;;;;;5052902;28;20047;-75
2022/08/23 11:50:49;;;;;;;7.10;4.40;;;;;;;;;;5054567;28;20031;-75
2022/08/23 11:53:33;;;;;;;7.50;4.43;;;;;;;;;;5054110;28;20029;-75
2022/08/23 11:56:11;;;;;;;9.05;5.53;;;;;;;;;;5054428;28;20585;-76
2022/08/23 11:59:01;;;;;;;7.30;5.00;;;;;;;;;;5054095;28;20032;-75
2022/08/23 12:01:31;;;;;;;5.32;4.75;;;;;;;;;;5054145;28;20029;-75
2022/08/23 12:04:00;;;;;;;9.38;5.00;;;;;;;;;;5052676;28;20029;-75
2022/08/23 12:06:46;;;;;;;6.35;4.90;;;;;;;;;;5052919;28;20024;-74
2022/08/23 12:09:24;;;;;;;5.35;4.78;;;;;;;;;;5054260;28;20028;-76
2022/08/23 12:11:55;;;;;;;6.85;4.75;;;;;;;;;;5053841;28;20020;-76
2022/08/23 12:14:31;;;;;;;6.82;5.00;;;;;;;;;;5053729;28;20049;-76
2022/08/23 12:16:59;;;;;;;7.15;5.20;;;;;;;;;;5053728;28;20031;-76
2022/08/23 12:19:49;;;;;;;8.05;5.22;;;;;;;;;;5053879;28;20367;-74
2022/08/23 12:22:23;;;;;;;10.82;6.32;;;;;;;;;;5053060;28;20402;-75
2022/08/23 12:24:55;;;;;;;7.65;5.82;;;;;;;;;;5052270;28;20504;-75
2022/08/23 12:27:45;;;;;;;7.20;5.65;;;;;;;;;;5053639;28;20584;-75
2022/08/23 12:30:19;;;;;;;9.40;5.20;;;;;;;;;;5053794;28;20481;-75
2022/08/23 12:33:06;;;;;;;6.90;5.32;;;;;;;;;;5053548;28;20099;-76
2022/08/23 12:36:06;;;;;;;9.65;6.15;;;;;;;;;;5052808;28;20454;-75
2022/08/23 12:38:56;;;;;;;7.13;5.15;;;;;;;;;;5054035;28;20096;-74
2022/08/23 12:41:27;;;;;;;10.38;5.32;;;;;;;;;;5053336;28;20029;-75
2022/08/23 12:43:55;;;;;;;9.07;5.40;;;;;;;;;;5052776;28;20116;-75
2022/08/23 12:46:47;;;;;;;6.78;5.50;;;;;;;;;;5053070;28;20035;-75
2022/08/23 12:49:24;;;;;;;10.13;5.75;;;;;;;;;;5052877;28;20494;-75
2022/08/23 12:51:52;;;;;;;9.73;5.45;;;;;;;;;;5053160;28;20082;-75
2022/08/23 12:54:23;;;;;;;7.55;5.40;;;;;;;;;;5053108;28;20025;-75
2022/08/23 12:56:52;;;;;;;7.13;5.20;;;;;;;;;;5053220;28;20478;-76
2022/08/23 13:00:05;;;;;;;8.23;5.28;;;;;;;;;;5053366;28;20028;-76
2022/08/23 13:02:32;;;;;;;8.05;5.30;;;;;;;;;;5051759;28;20075;-76
2022/08/23 13:05:08;;;;;;;9.15;5.20;;;;;;;;;;5052857;28;20029;-75
2022/08/23 13:07:35;;;;;;;11.25;4.70;;;;;;;;;;5053249;28;20040;-75
2022/08/23 13:10:00;;;;;;;7.70;5.55;;;;;;;;;;5052847;28;20108;-76
2022/08/23 13:12:26;;;;;;;6.15;5.03;;;;;;;;;;5053245;28;20060;-73
2022/08/23 13:14:53;;;;;;;9.30;4.75;;;;;;;;;;5053248;28;20021;-75
2022/08/23 13:17:24;;;;;;;8.88;4.90;;;;;;;;;;5052835;28;20033;-76
2022/08/23 13:19:53;;;;;;;7.75;5.00;;;;;;;;;;5051605;28;20021;-76
2022/08/23 13:22:18;;;;;;;8.82;4.22;;;;;;;;;;5052979;28;20512;-76
2022/08/23 13:25:06;;;;;;;7.13;4.37;;;;;;;;;;5053118;28;20029;-75
2022/08/23 13:27:33;;;;;;;6.05;4.15;;;;;;;;;;5052977;28;20383;-72
2022/08/23 13:30:07;;;;;;;7.13;4.30;;;;;;;;;;5052098;28;20060;-75
2022/08/23 13:32:44;;;;;;;7.18;4.30;;;;;;;;;;5054080;28;20024;-75
2022/08/23 13:35:34;;;;;;;7.57;5.10;;;;;;;;;;5053928;28;20107;-75
2022/08/23 13:38:14;;;;;;;6.03;4.13;;;;;;;;;;5055426;28;20071;-75
2022/08/23 13:41:00;;;;;;;7.90;4.43;;;;;;;;;;5054325;28;20029;-75
2022/08/23 13:43:43;;;;;;;5.88;4.03;;;;;;;;;;5055250;28;20478;-76
2022/08/23 13:46:17;;;;;;;6.07;4.60;;;;;;;;;;5055720;28;20036;-75
2022/08/23 13:49:01;;;;;;;10.05;4.40;;;;;;;;;;5055938;28;20082;-76
2022/08/23 13:51:35;;;;;;;10.40;4.40;;;;;;;;;;5056376;28;20025;-75
2022/08/23 13:54:06;;;;;;;6.07;4.35;;;;;;;;;;5056111;28;20032;-75
2022/08/23 13:56:37;;;;;;;9.13;4.38;;;;;;;;;;5056604;28;20432;-76
2022/08/23 13:59:31;;;;;;;9.10;4.63;;;;;;;;;;5056580;28;20028;-75
2022/08/23 14:01:59;;;;;;;7.40;4.68;;;;;;;;;;5058565;28;20024;-75
2022/08/23 14:04:24;;;;;;;7.28;4.47;;;;;;;;;;5057305;28;20044;-76
2022/08/23 14:06:49;;;;;;;5.88;4.50;;;;;;;;;;5055022;28;20025;-77
2022/08/23 14:09:15;;;;;;;6.72;4.72;;;;;;;;;;5052921;28;20103;-76
2022/08/23 14:11:41;;;;;;;9.73;4.75;;;;;;;;;;5051139;28;20433;-75
2022/08/23 14:14:07;;;;;;;9.52;5.05;;;;;;;;;;5052514;28;20025;-75
2022/08/23 14:16:36;;;;;;;6.25;4.32;;;;;;;;;;5052596;28;20021;-75
2022/08/23 14:19:02;;;;;;;7.18;4.63;;;;;;;;;;5052502;28;20075;-75
2022/08/23 14:21:28;;;;;;;6.60;3.78;;;;;;;;;;5052220;28;20087;-75
2022/08/23 14:23:53;;;;;;;9.83;4.00;;;;;;;;;;5052161;28;20379;-76
2022/08/23 14:26:20;;;;;;;10.45;3.92;;;;;;;;;;5052185;28;20697;-76
2022/08/23 14:28:46;;;;;;;9.40;4.13;;;;;;;;;;5052440;28;20021;-76
2022/08/23 14:31:12;;;;;;;7.55;3.67;;;;;;;;;;5055298;28;20036;-76
2022/08/23 14:33:37;;;;;;;9.68;4.03;;;;;;;;;;5055560;28;20112;-75
2022/08/23 14:36:04;;;;;;;6.65;3.90;;;;;;;;;;5055767;28;20109;-75
2022/08/23 14:38:29;;;;;;;6.70;4.15;;;;;;;;;;5056135;28;20057;-74
2022/08/23 14:40:58;;;;;;;6.47;4.03;;;;;;;;;;5055718;28;20113;-75
2022/08/23 14:43:24;;;;;;;8.75;3.72;;;;;;;;;;5054283;28;20463;-75
2022/08/23 14:45:49;;;;;;;6.05;4.13;;;;;;;;;;5055201;28;20104;-75
2022/08/23 14:48:16;;;;;;;10.73;3.92;;;;;;;;;;5055667;28;20074;-75
2022/08/23 14:50:42;;;;;;;5.97;3.85;;;;;;;;;;5055632;28;20029;-76
2022/08/23 14:53:08;;;;;;;10.23;3.40;;;;;;;;;;5055464;28;20036;-76
2022/08/23 14:55:33;;;;;;;6.18;3.55;;;;;;;;;;5055136;28;20160;-75
2022/08/23 14:57:58;;;;;;;6.73;3.47;;;;;;;;;;5055147;28;20048;-75
2022/08/23 15:00:24;;;;;;;5.43;3.42;;;;;;;;;;5055413;28;20258;-75
2022/08/23 15:02:49;;;;;;;7.13;3.50;;;;;;;;;;5054874;28;20131;-75
2022/08/23 15:05:15;;;;;;;8.32;3.95;;;;;;;;;;5054954;28;20528;-75
2022/08/23 15:07:40;;;;;;;6.82;3.70;;;;;;;;;;5055276;28;20035;-75